Time;durP1;ratioP1;P1;durP2;ratioP2;P2;SDS_P1;SDS_P2;PMS_P1;PMS_P2;Temp;Humidity;BMP_temperature;BMP_pressure;BME280_temperature;BME280_humidity;BME280_pressure;Samples;Min_cycle;Max_cycle;Signal;HPM_P1;HPM_P2
2023/09/21 00:00:16;;;;;;;5.20;1.80;;;;;;;;;;4999502;28;93298;-85
2023/09/21 00:02:50;;;;;;;7.55;2.15;;;;;;;;;;4999145;28;93643;-86
2023/09/21 00:05:24;;;;;;;4.93;1.90;;;;;;;;;;4999729;28;92432;-85
2023/09/21 00:07:51;;;;;;;7.40;2.20;;;;;;;;;;4987073;28;94794;-85
2023/09/21 00:10:18;;;;;;;6.22;2.20;;;;;;;;;;4987627;28;92473;-85
2023/09/21 00:12:45;;;;;;;7.15;2.35;;;;;;;;;;4979459;28;95444;-86
2023/09/21 00:15:19;;;;;;;5.38;2.10;;;;;;;;;;4990307;28;93589;-85
2023/09/21 00:17:46;;;;;;;6.03;2.10;;;;;;;;;;4984920;28;92449;-87
2023/09/21 00:20:23;;;;;;;;;;;;;;;;;;4982576;28;92941;-87
2023/09/21 00:22:51;;;;;;;6.78;1.98;;;;;;;;;;5004217;28;92527;-83
2023/09/21 00:25:17;;;;;;;6.07;2.10;;;;;;;;;;5002886;28;91717;-85
2023/09/21 00:27:44;;;;;;;6.50;2.03;;;;;;;;;;4995365;28;93786;-86
2023/09/21 00:30:11;;;;;;;5.70;2.10;;;;;;;;;;5010178;28;93047;-85
2023/09/21 00:32:38;;;;;;;;;;;;;;;;;;4992205;28;94523;-87
2023/09/21 00:35:09;;;;;;;7.28;2.10;;;;;;;;;;5007779;28;105628;-87
2023/09/21 00:37:37;;;;;;;6.35;2.03;;;;;;;;;;4994883;28;92726;-87
2023/09/21 00:40:24;;;;;;;5.68;1.98;;;;;;;;;;4977510;28;95223;-87
2023/09/21 00:42:55;;;;;;;5.80;2.10;;;;;;;;;;5002991;28;93148;-86
2023/09/21 00:45:22;;;;;;;5.93;2.15;;;;;;;;;;5002199;28;94059;-86
2023/09/21 00:47:50;;;;;;;4.85;2.10;;;;;;;;;;4996721;28;94483;-85
2023/09/21 00:50:22;;;;;;;5.43;1.90;;;;;;;;;;4984083;28;92653;-86
2023/09/21 00:52:53;;;;;;;5.70;2.10;;;;;;;;;;5004665;28;92444;-86
2023/09/21 00:55:39;;;;;;;6.70;2.30;;;;;;;;;;4987507;28;93267;-87
2023/09/21 00:58:05;;;;;;;;;;;;;;;;;;5000995;28;94786;-87
2023/09/21 01:00:32;;;;;;;4.65;2.13;;;;;;;;;;5001984;28;96279;-86
2023/09/21 01:03:07;;;;;;;4.38;2.05;;;;;;;;;;4985315;28;95683;-86
2023/09/21 01:05:36;;;;;;;8.30;2.10;;;;;;;;;;4999366;28;92476;-87
2023/09/21 01:08:05;;;;;;;7.20;2.55;;;;;;;;;;4989025;28;93321;-86
2023/09/21 01:10:33;;;;;;;5.13;2.00;;;;;;;;;;4988090;28;92351;-86
2023/09/21 01:13:00;;;;;;;5.13;1.80;;;;;;;;;;4981704;28;92552;-84
2023/09/21 01:15:26;;;;;;;6.40;2.35;;;;;;;;;;4998306;28;92091;-85
2023/09/21 01:17:53;;;;;;;4.93;2.03;;;;;;;;;;4983964;28;93046;-85
2023/09/21 01:20:27;;;;;;;;;;;;;;;;;;4984453;28;95550;-86
2023/09/21 01:23:12;;;;;;;5.32;2.00;;;;;;;;;;4983377;28;95396;-86
2023/09/21 01:25:40;;;;;;;7.55;1.90;;;;;;;;;;4994124;28;92522;-87
2023/09/21 01:28:11;;;;;;;5.90;1.90;;;;;;;;;;5000791;28;92940;-84
2023/09/21 01:30:38;;;;;;;6.22;2.20;;;;;;;;;;4992432;28;93423;-85
2023/09/21 01:33:09;;;;;;;4.28;1.77;;;;;;;;;;4999979;28;92513;-85
2023/09/21 01:35:36;;;;;;;5.70;1.90;;;;;;;;;;5000386;28;92868;-86
2023/09/21 01:38:05;;;;;;;6.90;2.25;;;;;;;;;;5004185;28;92470;-86
2023/09/21 01:40:34;;;;;;;5.15;1.98;;;;;;;;;;5001578;28;94414;-86
2023/09/21 01:43:06;;;;;;;6.80;2.20;;;;;;;;;;4999972;28;93084;-86
2023/09/21 01:45:33;;;;;;;7.22;2.13;;;;;;;;;;5000548;28;92862;-86
2023/09/21 01:48:00;;;;;;;;;;;;;;;;;;4988690;28;95570;-86
2023/09/21 01:50:28;;;;;;;5.32;1.80;;;;;;;;;;4987652;28;94045;-85
2023/09/21 01:52:56;;;;;;;6.80;2.10;;;;;;;;;;4986201;28;92575;-86
2023/09/21 01:55:22;;;;;;;;;;;;;;;;;;5002044;28;94550;-86
2023/09/21 01:57:48;;;;;;;6.47;2.03;;;;;;;;;;4992582;28;101577;-86
2023/09/21 02:00:26;;;;;;;7.05;2.10;;;;;;;;;;5006724;28;93143;-86
2023/09/21 02:02:53;;;;;;;6.53;2.20;;;;;;;;;;4989654;28;94577;-84
2023/09/21 02:05:23;;;;;;;6.03;2.00;;;;;;;;;;5000286;28;91765;-86
2023/09/21 02:07:52;;;;;;;7.22;2.45;;;;;;;;;;4992010;28;95069;-85
2023/09/21 02:10:18;;;;;;;6.05;2.00;;;;;;;;;;4992306;28;92412;-84
2023/09/21 02:12:58;;;;;;;5.72;2.00;;;;;;;;;;4993596;28;94912;-84
2023/09/21 02:15:25;;;;;;;11.13;2.00;;;;;;;;;;4999312;28;95071;-83
2023/09/21 02:17:54;;;;;;;6.03;2.05;;;;;;;;;;5009698;28;93000;-83
2023/09/21 02:20:21;;;;;;;8.13;2.30;;;;;;;;;;5010250;28;92908;-85
2023/09/21 02:22:48;;;;;;;5.63;2.15;;;;;;;;;;5007904;28;92746;-84
2023/09/21 02:25:16;;;;;;;6.13;2.03;;;;;;;;;;4996488;28;93046;-84
2023/09/21 02:27:46;;;;;;;7.10;1.90;;;;;;;;;;5006475;28;93365;-85
2023/09/21 02:30:17;;;;;;;5.03;2.22;;;;;;;;;;5002218;28;92370;-84
2023/09/21 02:32:45;;;;;;;6.35;1.88;;;;;;;;;;4999402;28;93195;-85
2023/09/21 02:35:16;;;;;;;4.85;2.10;;;;;;;;;;4998969;28;93705;-84
2023/09/21 02:37:44;;;;;;;6.95;2.15;;;;;;;;;;4996020;28;95623;-84
2023/09/21 02:40:16;;;;;;;5.97;1.98;;;;;;;;;;4993814;28;93233;-83
2023/09/21 02:42:43;;;;;;;6.47;2.20;;;;;;;;;;4996454;28;92340;-83
2023/09/21 02:45:10;;;;;;;4.75;1.90;;;;;;;;;;4997890;28;92412;-85
2023/09/21 02:47:38;;;;;;;5.97;2.15;;;;;;;;;;4978473;28;94688;-85
2023/09/21 02:50:14;;;;;;;7.00;2.00;;;;;;;;;;4980217;28;96461;-85
2023/09/21 02:52:45;;;;;;;7.32;2.13;;;;;;;;;;4995447;28;92469;-85
2023/09/21 02:55:20;;;;;;;12.48;2.60;;;;;;;;;;5007995;28;95424;-83
2023/09/21 02:57:54;;;;;;;6.80;1.83;;;;;;;;;;4978185;28;95014;-85
2023/09/21 03:02:56;;;;;;;6.88;2.08;;;;;;;;;;4997423;28;94903;-86
2023/09/21 03:05:25;;;;;;;5.60;2.00;;;;;;;;;;5000691;28;93093;-84
2023/09/21 03:07:52;;;;;;;5.55;2.10;;;;;;;;;;4978446;28;96109;-84
2023/09/21 03:10:20;;;;;;;6.80;2.10;;;;;;;;;;4977003;28;95517;-85
2023/09/21 03:12:48;;;;;;;6.00;1.90;;;;;;;;;;4999033;28;92397;-87
2023/09/21 03:15:19;;;;;;;5.22;1.95;;;;;;;;;;4994256;28;94219;-87
2023/09/21 03:17:47;;;;;;;6.57;2.60;;;;;;;;;;4985440;28;94802;-85
2023/09/21 03:20:35;;;;;;;4.88;1.80;;;;;;;;;;5008734;28;91623;-84
2023/09/21 03:23:05;;;;;;;3.70;1.75;;;;;;;;;;4994507;28;93880;-84
2023/09/21 03:25:33;;;;;;;5.68;2.20;;;;;;;;;;4987554;28;93634;-84
2023/09/21 03:28:10;;;;;;;4.30;1.80;;;;;;;;;;4999605;28;94919;-87
2023/09/21 03:30:38;;;;;;;6.75;2.10;;;;;;;;;;5004684;28;92963;-86
2023/09/21 03:33:05;;;;;;;6.93;2.45;;;;;;;;;;5007950;28;92484;-86
2023/09/21 03:35:32;;;;;;;4.90;1.90;;;;;;;;;;4996229;28;93106;-87
2023/09/21 03:37:59;;;;;;;5.20;1.85;;;;;;;;;;4996565;28;95900;-86
2023/09/21 03:40:26;;;;;;;6.35;2.03;;;;;;;;;;4992042;28;92859;-88
2023/09/21 03:42:57;;;;;;;5.63;2.17;;;;;;;;;;4999558;28;92420;-87
2023/09/21 03:45:38;;;;;;;7.90;1.90;;;;;;;;;;4989671;28;93349;-87
2023/09/21 03:48:19;;;;;;;5.80;2.17;;;;;;;;;;4998818;28;92465;-87
2023/09/21 03:51:04;;;;;;;6.85;2.15;;;;;;;;;;5003538;28;92723;-88
2023/09/21 03:53:46;;;;;;;6.03;2.03;;;;;;;;;;4996837;28;95824;-86
2023/09/21 03:56:27;;;;;;;6.40;2.10;;;;;;;;;;4977083;28;97356;-85
2023/09/21 03:59:11;;;;;;;5.40;2.05;;;;;;;;;;5002186;28;92651;-87
2023/09/21 04:01:59;;;;;;;5.22;1.90;;;;;;;;;;5000967;28;92478;-87
2023/09/21 04:04:40;;;;;;;6.38;1.90;;;;;;;;;;5002314;28;92462;-87
2023/09/21 04:07:22;;;;;;;5.20;1.95;;;;;;;;;;5000153;28;94516;-87
2023/09/21 04:10:06;;;;;;;4.22;2.10;;;;;;;;;;4990216;28;92421;-87
2023/09/21 04:12:47;;;;;;;5.32;1.90;;;;;;;;;;5002697;28;95735;-88
2023/09/21 04:15:29;;;;;;;6.72;1.98;;;;;;;;;;4984898;28;92555;-87
2023/09/21 04:18:10;;;;;;;6.05;1.92;;;;;;;;;;4995347;28;93313;-87
2023/09/21 04:20:51;;;;;;;6.00;2.00;;;;;;;;;;5001035;28;94949;-87
2023/09/21 04:23:32;;;;;;;7.20;2.42;;;;;;;;;;4988364;28;92419;-88
2023/09/21 04:26:13;;;;;;;4.85;2.03;;;;;;;;;;4994320;28;94997;-88
2023/09/21 04:28:56;;;;;;;5.05;2.10;;;;;;;;;;4992490;28;93067;-88
2023/09/21 04:31:39;;;;;;;5.65;1.90;;;;;;;;;;4986294;28;92401;-87
2023/09/21 04:34:19;;;;;;;5.00;1.90;;;;;;;;;;4976844;28;94469;-87
2023/09/21 04:37:00;;;;;;;4.90;1.95;;;;;;;;;;4983992;28;95051;-87
2023/09/21 04:39:41;;;;;;;6.40;2.25;;;;;;;;;;4983694;28;91766;-87
2023/09/21 04:42:21;;;;;;;5.13;2.10;;;;;;;;;;4993979;28;95083;-86
2023/09/21 04:45:08;;;;;;;5.38;1.92;;;;;;;;;;5006494;28;92777;-85
2023/09/21 04:47:58;;;;;;;6.10;2.15;;;;;;;;;;4983821;28;95022;-86
2023/09/21 04:50:44;;;;;;;7.80;2.35;;;;;;;;;;4986936;28;92466;-85
2023/09/21 04:53:27;;;;;;;6.05;2.13;;;;;;;;;;5008416;28;92585;-85
2023/09/21 04:56:09;;;;;;;7.22;2.20;;;;;;;;;;4987330;28;94958;-86
2023/09/21 04:58:55;;;;;;;4.68;1.80;;;;;;;;;;5001721;28;92552;-86
2023/09/21 05:01:37;;;;;;;4.38;1.85;;;;;;;;;;4990642;28;92841;-86
2023/09/21 05:04:18;;;;;;;5.03;1.90;;;;;;;;;;4997205;28;92341;-85
2023/09/21 05:07:01;;;;;;;6.25;2.30;;;;;;;;;;5001839;28;91960;-85
2023/09/21 05:09:41;;;;;;;6.20;2.30;;;;;;;;;;4988380;28;93503;-86
2023/09/21 05:12:22;;;;;;;7.38;2.30;;;;;;;;;;4991531;28;96263;-87
2023/09/21 05:15:06;;;;;;;6.05;2.33;;;;;;;;;;5005464;28;94875;-85
2023/09/21 05:17:48;;;;;;;5.45;1.80;;;;;;;;;;5013497;28;94184;-86
2023/09/21 05:20:29;;;;;;;5.70;1.90;;;;;;;;;;5001447;28;93010;-86
2023/09/21 05:23:09;;;;;;;4.80;1.92;;;;;;;;;;4975273;28;92407;-87
2023/09/21 05:25:50;;;;;;;6.88;2.17;;;;;;;;;;5006437;28;92831;-85
2023/09/21 05:28:32;;;;;;;5.35;2.20;;;;;;;;;;4983407;28;92481;-86
2023/09/21 05:31:19;;;;;;;5.05;2.10;;;;;;;;;;4999041;28;93300;-86
2023/09/21 05:34:02;;;;;;;5.40;2.13;;;;;;;;;;5001742;28;92925;-86
2023/09/21 05:36:46;;;;;;;6.22;2.10;;;;;;;;;;4985414;28;92452;-85
2023/09/21 05:39:28;;;;;;;5.93;2.13;;;;;;;;;;4999029;28;94624;-87
2023/09/21 05:42:10;;;;;;;5.60;2.25;;;;;;;;;;4994726;28;95639;-86
2023/09/21 05:44:50;;;;;;;6.35;2.15;;;;;;;;;;4995994;28;92994;-86
2023/09/21 05:47:32;;;;;;;5.97;2.28;;;;;;;;;;4999244;28;93999;-85
2023/09/21 05:50:13;;;;;;;5.80;2.10;;;;;;;;;;4988962;28;92841;-86
2023/09/21 05:52:56;;;;;;;7.28;2.33;;;;;;;;;;4996384;28;94789;-85
2023/09/21 05:55:37;;;;;;;5.90;2.20;;;;;;;;;;4999142;28;92973;-84
2023/09/21 05:58:18;;;;;;;4.63;2.00;;;;;;;;;;4982833;28;92635;-85
2023/09/21 06:00:59;;;;;;;6.60;2.08;;;;;;;;;;4987999;28;93027;-85
2023/09/21 06:03:41;;;;;;;4.28;1.80;;;;;;;;;;4997466;28;95933;-84
2023/09/21 06:06:22;;;;;;;5.70;2.00;;;;;;;;;;4995923;28;92448;-85
2023/09/21 06:09:03;;;;;;;5.35;2.10;;;;;;;;;;4980979;28;94962;-86
2023/09/21 06:11:45;;;;;;;5.78;1.83;;;;;;;;;;4979228;28;92994;-85
2023/09/21 06:14:26;;;;;;;6.60;2.00;;;;;;;;;;4981923;28;92558;-84
2023/09/21 06:17:10;;;;;;;5.85;2.00;;;;;;;;;;4997179;28;93655;-85
2023/09/21 06:19:53;;;;;;;4.63;1.95;;;;;;;;;;4997751;28;92561;-84
2023/09/21 06:22:34;;;;;;;4.47;1.85;;;;;;;;;;5007767;28;96025;-84
2023/09/21 06:25:16;;;;;;;7.30;2.20;;;;;;;;;;5000943;28;92769;-85
2023/09/21 06:27:57;;;;;;;4.95;2.00;;;;;;;;;;5003993;28;91732;-83
2023/09/21 06:30:39;;;;;;;7.78;1.90;;;;;;;;;;4980598;28;94495;-84
2023/09/21 06:33:24;;;;;;;7.05;2.70;;;;;;;;;;4992898;28;92458;-86
2023/09/21 06:35:52;;;;;;;4.78;1.95;;;;;;;;;;4994828;28;94897;-83
2023/09/21 06:38:20;;;;;;;6.00;1.95;;;;;;;;;;4992963;28;92910;-80
2023/09/21 06:40:46;;;;;;;5.28;1.90;;;;;;;;;;4994377;28;92462;-82
2023/09/21 06:43:13;;;;;;;7.15;2.03;;;;;;;;;;4991233;28;93145;-82
2023/09/21 06:45:40;;;;;;;6.80;2.10;;;;;;;;;;4990401;28;93386;-81
2023/09/21 06:48:11;;;;;;;5.15;1.92;;;;;;;;;;4989520;28;92446;-79
2023/09/21 06:50:40;;;;;;;4.47;1.70;;;;;;;;;;4992562;28;94895;-79
2023/09/21 06:53:07;;;;;;;6.18;2.00;;;;;;;;;;4980420;28;92583;-79
2023/09/21 06:55:34;;;;;;;5.68;2.10;;;;;;;;;;4989164;28;92438;-80
2023/09/21 06:58:01;;;;;;;4.85;2.00;;;;;;;;;;4999322;28;92990;-83
2023/09/21 07:00:27;;;;;;;5.10;2.10;;;;;;;;;;4991224;28;94938;-79
2023/09/21 07:02:54;;;;;;;7.47;2.25;;;;;;;;;;4991231;28;94118;-81
2023/09/21 07:05:21;;;;;;;6.53;2.15;;;;;;;;;;4984092;28;92479;-81
2023/09/21 07:07:49;;;;;;;5.72;2.10;;;;;;;;;;4996494;28;92639;-82
2023/09/21 07:10:16;;;;;;;5.50;2.22;;;;;;;;;;4995005;28;95705;-82
2023/09/21 07:12:42;;;;;;;;;;;;;;;;;;4995465;28;92968;-83
2023/09/21 07:15:09;;;;;;;6.65;2.20;;;;;;;;;;4980171;28;92982;-82
2023/09/21 07:17:36;;;;;;;8.15;2.10;;;;;;;;;;4985559;28;92754;-84
2023/09/21 07:20:08;;;;;;;5.53;2.08;;;;;;;;;;5006758;28;93757;-84
2023/09/21 07:22:36;;;;;;;6.25;2.00;;;;;;;;;;4981427;28;92456;-84
2023/09/21 07:25:03;;;;;;;6.88;2.30;;;;;;;;;;4982483;28;95348;-85
2023/09/21 07:27:29;;;;;;;4.88;1.77;;;;;;;;;;4992449;28;92386;-85
2023/09/21 07:29:57;;;;;;;6.40;1.70;;;;;;;;;;4997657;28;92861;-84
2023/09/21 07:32:28;;;;;;;6.05;1.98;;;;;;;;;;4995270;28;93481;-84
2023/09/21 07:34:55;;;;;;;3.92;1.70;;;;;;;;;;4996279;28;92835;-84
2023/09/21 07:37:21;;;;;;;3.50;1.20;;;;;;;;;;4990222;28;92743;-85
2023/09/21 07:39:49;;;;;;;5.88;1.70;;;;;;;;;;4990309;28;94289;-86
2023/09/21 07:42:15;;;;;;;4.82;1.70;;;;;;;;;;4996430;28;91767;-85
2023/09/21 07:44:45;;;;;;;2.95;1.10;;;;;;;;;;4984328;28;92573;-85
2023/09/21 07:47:12;;;;;;;4.72;1.80;;;;;;;;;;5004184;28;92544;-85
2023/09/21 07:49:39;;;;;;;3.63;1.42;;;;;;;;;;4995952;28;95860;-85
2023/09/21 07:52:07;;;;;;;3.75;1.50;;;;;;;;;;4992122;28;93761;-85
2023/09/21 07:54:33;;;;;;;3.35;1.45;;;;;;;;;;4995390;28;92497;-86
2023/09/21 07:57:00;;;;;;;2.78;1.30;;;;;;;;;;4992553;28;92834;-86
2023/09/21 07:59:27;;;;;;;4.13;1.50;;;;;;;;;;4988684;28;93173;-86
2023/09/21 08:01:56;;;;;;;2.33;1.30;;;;;;;;;;4971772;28;92590;-86
2023/09/21 08:04:22;;;;;;;2.92;1.20;;;;;;;;;;4991503;28;92916;-86
2023/09/21 08:06:49;;;;;;;4.25;1.30;;;;;;;;;;5001796;28;92375;-86
2023/09/21 08:09:18;;;;;;;3.30;1.38;;;;;;;;;;4992875;28;92555;-86
2023/09/21 08:11:52;;;;;;;4.30;1.50;;;;;;;;;;5002310;28;93005;-86
2023/09/21 08:14:36;;;;;;;3.97;1.60;;;;;;;;;;4979666;28;94958;-87
2023/09/21 08:17:17;;;;;;;3.55;1.60;;;;;;;;;;5000519;28;97963;-87
2023/09/21 08:19:58;;;;;;;3.75;1.50;;;;;;;;;;4995776;28;94438;-87
2023/09/21 08:22:47;;;;;;;3.45;1.50;;;;;;;;;;4967082;28;92449;-87
2023/09/21 08:25:27;;;;;;;4.68;1.40;;;;;;;;;;5001404;28;92662;-85
2023/09/21 08:28:08;;;;;;;3.50;1.38;;;;;;;;;;5015545;28;94254;-87
2023/09/21 08:30:50;;;;;;;5.13;1.63;;;;;;;;;;4984458;28;95096;-86
2023/09/21 08:33:31;;;;;;;4.05;1.40;;;;;;;;;;4999512;28;94120;-86
2023/09/21 08:36:18;;;;;;;4.80;1.70;;;;;;;;;;4998952;28;92747;-85
2023/09/21 08:39:01;;;;;;;5.20;1.50;;;;;;;;;;4999072;28;94754;-85
2023/09/21 08:41:47;;;;;;;4.20;1.40;;;;;;;;;;4997311;28;97707;-85
2023/09/21 08:44:29;;;;;;;3.63;1.33;;;;;;;;;;4998996;28;92449;-85
2023/09/21 08:47:13;;;;;;;4.10;1.45;;;;;;;;;;4966624;28;95497;-84
2023/09/21 08:49:58;;;;;;;4.07;1.40;;;;;;;;;;4997858;28;93151;-86
2023/09/21 08:52:48;;;;;;;3.95;1.30;;;;;;;;;;4998997;28;92753;-84
2023/09/21 08:55:29;;;;;;;4.18;1.40;;;;;;;;;;4998452;28;94113;-84
2023/09/21 08:58:15;;;;;;;3.35;1.05;;;;;;;;;;4979150;28;92475;-83
2023/09/21 09:00:59;;;;;;;3.90;1.40;;;;;;;;;;5000435;28;92961;-83
2023/09/21 09:03:41;;;;;;;3.50;1.30;;;;;;;;;;5000836;28;93528;-84
2023/09/21 09:06:22;;;;;;;3.05;1.20;;;;;;;;;;4987632;28;92693;-84
2023/09/21 09:09:05;;;;;;;4.63;1.40;;;;;;;;;;4977953;28;95080;-85
2023/09/21 09:11:45;;;;;;;3.60;1.30;;;;;;;;;;4995162;28;94618;-83
2023/09/21 09:14:27;;;;;;;2.65;1.10;;;;;;;;;;5005437;28;92553;-84
2023/09/21 09:17:12;;;;;;;4.45;1.52;;;;;;;;;;4988394;28;92341;-83
2023/09/21 09:19:52;;;;;;;2.53;1.00;;;;;;;;;;4990941;28;92423;-84
2023/09/21 09:22:34;;;;;;;3.58;1.40;;;;;;;;;;4997887;28;92703;-84
2023/09/21 09:25:21;;;;;;;3.17;1.50;;;;;;;;;;5005767;28;92521;-83
2023/09/21 09:28:02;;;;;;;2.78;1.20;;;;;;;;;;4979491;28;91824;-84
2023/09/21 09:30:45;;;;;;;2.53;1.20;;;;;;;;;;4995402;28;94354;-84
2023/09/21 09:33:26;;;;;;;4.20;1.25;;;;;;;;;;4994669;28;95061;-83
2023/09/21 09:36:10;;;;;;;3.03;1.20;;;;;;;;;;4995472;28;94861;-83
2023/09/21 09:38:50;;;;;;;3.97;1.10;;;;;;;;;;4987036;28;96628;-84
2023/09/21 09:41:31;;;;;;;3.03;1.20;;;;;;;;;;5000488;28;93197;-85
2023/09/21 09:44:14;;;;;;;2.80;1.10;;;;;;;;;;4977566;28;95538;-85
2023/09/21 09:47:00;;;;;;;3.33;1.20;;;;;;;;;;4990552;28;94247;-86
2023/09/21 09:49:44;;;;;;;2.28;0.90;;;;;;;;;;4980171;28;92394;-84
2023/09/21 09:52:28;;;;;;;2.42;1.10;;;;;;;;;;4993106;28;92533;-84
2023/09/21 09:55:12;;;;;;;3.05;1.10;;;;;;;;;;5010859;28;92274;-85
2023/09/21 09:57:54;;;;;;;2.15;0.80;;;;;;;;;;5008729;28;92355;-82
2023/09/21 10:00:35;;;;;;;3.08;1.10;;;;;;;;;;5007448;28;91993;-83
2023/09/21 10:03:17;;;;;;;2.20;1.00;;;;;;;;;;5008661;28;95274;-85
2023/09/21 10:06:00;;;;;;;3.20;1.20;;;;;;;;;;4999247;28;96879;-83
2023/09/21 10:08:41;;;;;;;3.20;1.10;;;;;;;;;;4996424;28;93779;-85
2023/09/21 10:11:23;;;;;;;2.38;0.95;;;;;;;;;;5001746;28;92999;-85
2023/09/21 10:14:07;;;;;;;2.58;1.13;;;;;;;;;;4991885;28;95018;-85
2023/09/21 10:16:54;;;;;;;1.88;1.00;;;;;;;;;;4992755;28;93199;-85
2023/09/21 10:19:38;;;;;;;4.53;1.20;;;;;;;;;;5004602;28;92721;-85
2023/09/21 10:22:23;;;;;;;6.68;1.15;;;;;;;;;;4980294;28;94597;-86
2023/09/21 10:24:53;;;;;;;2.67;1.05;;;;;;;;;;4993008;28;93412;-85
2023/09/21 10:27:21;;;;;;;2.60;1.17;;;;;;;;;;4997495;28;92452;-86
2023/09/21 10:29:51;;;;;;;4.65;1.10;;;;;;;;;;4992257;28;95749;-85
2023/09/21 10:32:21;;;;;;;3.70;0.93;;;;;;;;;;5000846;28;92486;-84
2023/09/21 10:34:48;;;;;;;2.60;0.90;;;;;;;;;;4989912;28;93073;-84
2023/09/21 10:37:17;;;;;;;3.08;1.00;;;;;;;;;;4996240;28;93963;-85
2023/09/21 10:39:44;;;;;;;4.00;1.17;;;;;;;;;;4997997;28;92488;-85
2023/09/21 10:42:12;;;;;;;3.63;1.23;;;;;;;;;;4998549;28;92486;-86
2023/09/21 10:45:03;;;;;;;4.93;1.15;;;;;;;;;;4997641;28;93215;-85
2023/09/21 10:47:35;;;;;;;4.03;0.82;;;;;;;;;;4987799;28;91619;-84
2023/09/21 10:50:06;;;;;;;2.40;0.90;;;;;;;;;;4999594;28;92808;-85
2023/09/21 10:52:33;;;;;;;4.95;1.20;;;;;;;;;;5006144;28;92621;-83
2023/09/21 10:54:59;;;;;;;4.93;1.10;;;;;;;;;;4998433;28;95038;-84
2023/09/21 10:57:27;;;;;;;2.80;0.90;;;;;;;;;;5001438;28;92951;-85
2023/09/21 10:59:55;;;;;;;3.85;1.00;;;;;;;;;;5002273;28;92762;-84
2023/09/21 11:02:41;;;;;;;2.50;0.93;;;;;;;;;;4999240;28;92710;-84
2023/09/21 11:05:08;;;;;;;4.78;1.17;;;;;;;;;;4997230;28;95833;-84
2023/09/21 11:07:36;;;;;;;;;;;;;;;;;;4979288;28;92600;-84
2023/09/21 11:10:05;;;;;;;2.38;0.93;;;;;;;;;;5000600;28;112098;-84
2023/09/21 11:12:32;;;;;;;2.30;1.00;;;;;;;;;;4996666;28;92171;-84
2023/09/21 11:14:59;;;;;;;4.35;1.10;;;;;;;;;;5000653;28;93090;-84
2023/09/21 11:17:28;;;;;;;2.58;1.00;;;;;;;;;;4981257;28;93208;-84
2023/09/21 11:19:57;;;;;;;2.22;0.85;;;;;;;;;;4994097;28;95157;-83
2023/09/21 11:22:26;;;;;;;2.33;0.90;;;;;;;;;;4995727;28;94206;-83
2023/09/21 11:24:54;;;;;;;2.10;1.00;;;;;;;;;;4987208;28;92539;-84
2023/09/21 11:27:27;;;;;;;2.85;0.95;;;;;;;;;;5001453;28;92458;-85
2023/09/21 11:29:54;;;;;;;2.72;0.95;;;;;;;;;;5003593;28;92263;-85
2023/09/21 11:32:22;;;;;;;3.28;1.00;;;;;;;;;;5002125;28;93039;-84
2023/09/21 11:34:56;;;;;;;4.47;1.13;;;;;;;;;;4999148;28;92801;-85
2023/09/21 11:37:23;;;;;;;2.13;0.93;;;;;;;;;;5000104;28;92668;-84
2023/09/21 11:39:51;;;;;;;2.67;1.08;;;;;;;;;;4985454;28;92455;-85
2023/09/21 11:42:18;;;;;;;3.20;1.13;;;;;;;;;;5000438;28;92926;-85
2023/09/21 11:44:50;;;;;;;2.25;1.08;;;;;;;;;;4995272;28;97519;-85
2023/09/21 11:47:17;;;;;;;1.77;0.95;;;;;;;;;;4988056;28;92678;-85
2023/09/21 11:49:44;;;;;;;2.83;1.10;;;;;;;;;;4992756;28;95877;-85
2023/09/21 11:52:13;;;;;;;2.72;1.10;;;;;;;;;;4993871;28;93920;-85
2023/09/21 11:54:40;;;;;;;2.78;1.08;;;;;;;;;;4995226;28;92505;-85
2023/09/21 11:57:09;;;;;;;4.30;1.30;;;;;;;;;;4998659;28;96154;-84
2023/09/21 11:59:42;;;;;;;3.00;0.90;;;;;;;;;;5003439;28;92520;-84
2023/09/21 12:02:10;;;;;;;3.00;1.15;;;;;;;;;;4991229;28;92316;-85
2023/09/21 12:04:37;;;;;;;;;;;;;;;;;;4983850;28;93497;-85
2023/09/21 12:07:04;;;;;;;4.45;1.00;;;;;;;;;;4982854;28;96727;-83
2023/09/21 12:09:36;;;;;;;3.17;0.98;;;;;;;;;;4997065;28;94833;-83
2023/09/21 12:12:04;;;;;;;3.42;1.10;;;;;;;;;;4984404;28;94419;-84
2023/09/21 12:14:31;;;;;;;4.25;1.10;;;;;;;;;;4992558;28;92283;-85
2023/09/21 12:17:02;;;;;;;1.52;0.75;;;;;;;;;;4981497;28;93131;-84
2023/09/21 12:19:30;;;;;;;4.15;1.10;;;;;;;;;;4988676;28;93332;-85
2023/09/21 12:21:57;;;;;;;1.65;0.93;;;;;;;;;;4991460;28;92960;-85
2023/09/21 12:24:24;;;;;;;3.00;0.93;;;;;;;;;;4995391;28;93154;-85
2023/09/21 12:26:53;;;;;;;2.42;1.10;;;;;;;;;;4983316;28;91662;-85
2023/09/21 12:29:20;;;;;;;2.53;0.90;;;;;;;;;;4987010;28;92672;-83
2023/09/21 12:31:46;;;;;;;2.45;0.90;;;;;;;;;;4995033;28;93172;-85
2023/09/21 12:34:26;;;;;;;3.45;1.10;;;;;;;;;;4981185;28;94795;-85
2023/09/21 12:36:53;;;;;;;3.03;1.05;;;;;;;;;;5000424;28;96636;-83
2023/09/21 12:39:24;;;;;;;2.22;1.00;;;;;;;;;;5005559;28;96079;-84
2023/09/21 12:41:51;;;;;;;3.15;1.10;;;;;;;;;;4993998;28;94439;-85
2023/09/21 12:44:21;;;;;;;2.65;0.90;;;;;;;;;;4991624;28;93083;-85
2023/09/21 12:46:48;;;;;;;3.67;1.10;;;;;;;;;;5008105;28;92842;-84
2023/09/21 12:49:16;;;;;;;3.47;1.05;;;;;;;;;;5006081;28;92451;-84
2023/09/21 12:51:44;;;;;;;2.00;1.00;;;;;;;;;;4989424;28;91849;-84
2023/09/21 12:54:11;;;;;;;2.85;1.05;;;;;;;;;;4993789;28;92334;-86
2023/09/21 12:56:38;;;;;;;2.58;1.05;;;;;;;;;;4998658;28;92853;-84
2023/09/21 12:59:04;;;;;;;2.08;1.00;;;;;;;;;;4985399;28;94808;-83
2023/09/21 13:01:32;;;;;;;2.80;0.98;;;;;;;;;;5010997;28;92878;-83
2023/09/21 13:03:59;;;;;;;2.38;0.98;;;;;;;;;;5009613;28;92419;-84
2023/09/21 13:06:28;;;;;;;1.30;0.80;;;;;;;;;;5007193;28;92351;-84
2023/09/21 13:08:55;;;;;;;1.77;0.93;;;;;;;;;;5007046;28;93002;-84
2023/09/21 13:11:22;;;;;;;3.35;0.85;;;;;;;;;;4992243;28;94943;-87
2023/09/21 13:13:48;;;;;;;2.97;1.05;;;;;;;;;;4999902;28;92464;-86
2023/09/21 13:16:15;;;;;;;2.75;0.88;;;;;;;;;;5003947;28;93137;-85
2023/09/21 13:18:42;;;;;;;2.63;1.15;;;;;;;;;;5002403;28;93517;-84
2023/09/21 13:21:10;;;;;;;1.55;0.88;;;;;;;;;;4990848;28;92504;-84
2023/09/21 13:23:37;;;;;;;2.15;0.82;;;;;;;;;;4987516;28;95259;-85
2023/09/21 13:26:04;;;;;;;1.42;0.70;;;;;;;;;;4988551;28;92589;-85
2023/09/21 13:28:31;;;;;;;2.90;0.90;;;;;;;;;;4996146;28;95692;-85
2023/09/21 13:30:58;;;;;;;2.20;0.80;;;;;;;;;;4997968;28;92959;-85
2023/09/21 13:33:27;;;;;;;2.08;1.00;;;;;;;;;;4986753;28;92552;-84
2023/09/21 13:35:53;;;;;;;2.17;0.95;;;;;;;;;;4991506;28;94643;-82
2023/09/21 13:38:22;;;;;;;4.15;0.98;;;;;;;;;;5000607;28;92364;-85
2023/09/21 13:40:49;;;;;;;6.40;1.02;;;;;;;;;;4998917;28;91821;-85
2023/09/21 13:43:15;;;;;;;5.00;1.10;;;;;;;;;;4985991;28;92681;-85
2023/09/21 13:45:42;;;;;;;6.28;1.20;;;;;;;;;;4981663;28;92504;-84
2023/09/21 13:48:08;;;;;;;5.70;1.10;;;;;;;;;;4994821;28;94917;-84
2023/09/21 13:50:36;;;;;;;6.38;1.38;;;;;;;;;;4975531;28;92563;-84
2023/09/21 13:53:03;;;;;;;6.35;1.13;;;;;;;;;;4977499;28;92789;-85
2023/09/21 13:55:29;;;;;;;3.40;1.00;;;;;;;;;;4975617;28;92911;-85
2023/09/21 13:57:56;;;;;;;5.70;1.30;;;;;;;;;;4985570;28;93105;-84
2023/09/21 14:00:24;;;;;;;3.72;1.08;;;;;;;;;;4984008;28;92556;-84
2023/09/21 14:02:51;;;;;;;3.72;1.10;;;;;;;;;;4993595;28;93561;-86
2023/09/21 14:05:22;;;;;;;3.67;1.00;;;;;;;;;;4999806;28;91635;-85
2023/09/21 14:07:50;;;;;;;3.33;1.15;;;;;;;;;;4986544;28;92397;-85
2023/09/21 14:10:17;;;;;;;3.35;1.13;;;;;;;;;;4981968;28;93389;-85
2023/09/21 14:12:44;;;;;;;5.00;1.10;;;;;;;;;;4972932;28;95230;-86
2023/09/21 14:15:11;;;;;;;2.33;1.00;;;;;;;;;;4972504;28;95258;-86
2023/09/21 14:17:39;;;;;;;2.35;1.02;;;;;;;;;;4977789;28;93545;-85
2023/09/21 14:20:08;;;;;;;3.53;1.00;;;;;;;;;;4987231;28;92578;-86
2023/09/21 14:22:37;;;;;;;2.22;0.80;;;;;;;;;;4988239;28;94115;-85
2023/09/21 14:25:05;;;;;;;2.30;1.02;;;;;;;;;;4978052;28;92520;-84
2023/09/21 14:27:35;;;;;;;3.05;1.10;;;;;;;;;;4982618;28;92654;-85
2023/09/21 14:30:02;;;;;;;3.78;1.00;;;;;;;;;;4985776;28;93602;-86
2023/09/21 14:32:29;;;;;;;3.78;1.00;;;;;;;;;;4987649;28;93025;-85
2023/09/21 14:34:57;;;;;;;2.80;1.02;;;;;;;;;;4980731;28;93308;-85
2023/09/21 14:37:26;;;;;;;1.60;0.93;;;;;;;;;;4988272;28;96036;-84
2023/09/21 14:39:56;;;;;;;1.38;0.80;;;;;;;;;;4984743;28;92448;-84
2023/09/21 14:42:24;;;;;;;3.00;1.13;;;;;;;;;;4981880;28;92960;-84
2023/09/21 14:44:51;;;;;;;2.30;0.93;;;;;;;;;;4988158;28;93487;-84
2023/09/21 14:47:18;;;;;;;2.38;1.00;;;;;;;;;;4970014;28;92574;-84
2023/09/21 14:49:45;;;;;;;1.70;0.90;;;;;;;;;;4984084;28;92923;-85
2023/09/21 14:52:12;;;;;;;3.22;1.13;;;;;;;;;;4971195;28;92565;-84
2023/09/21 14:54:38;;;;;;;3.05;1.10;;;;;;;;;;4982305;28;94062;-84
2023/09/21 14:57:06;;;;;;;2.83;1.00;;;;;;;;;;4982929;28;93239;-84
2023/09/21 14:59:33;;;;;;;1.58;1.00;;;;;;;;;;4975313;28;92771;-84
2023/09/21 15:02:00;;;;;;;3.17;0.90;;;;;;;;;;4981814;28;95147;-83
2023/09/21 15:04:27;;;;;;;3.22;1.10;;;;;;;;;;4987452;28;94363;-83
2023/09/21 15:06:54;;;;;;;4.22;1.00;;;;;;;;;;4990347;28;92731;-83
2023/09/21 15:09:21;;;;;;;3.83;1.10;;;;;;;;;;4993206;28;93327;-84
2023/09/21 15:11:47;;;;;;;2.33;1.05;;;;;;;;;;4990698;28;92565;-85
2023/09/21 15:14:14;;;;;;;3.13;1.02;;;;;;;;;;4984791;28;92435;-85
2023/09/21 15:16:41;;;;;;;1.88;1.00;;;;;;;;;;4988639;28;95798;-83
2023/09/21 15:19:07;;;;;;;2.63;1.20;;;;;;;;;;4982596;28;92319;-82
2023/09/21 15:21:34;;;;;;;2.13;0.95;;;;;;;;;;4985447;28;92656;-83